Time;durP1;ratioP1;P1;durP2;ratioP2;P2;SDS_P1;SDS_P2;PMS_P1;PMS_P2;Temp;Humidity;BMP_temperature;BMP_pressure;BME280_temperature;BME280_humidity;BME280_pressure;Samples;Min_cycle;Max_cycle;Signal;HPM_P1;HPM_P2
2023/02/15 00:01:17;;;;;;;;;;;;;;;5.38;nan;103336.78;4978715;28;19922;-84
2023/02/15 00:03:43;;;;;;;;;;;;;;;5.37;nan;103332.44;4975276;28;19922;-84
2023/02/15 00:06:08;;;;;;;;;;;;;;;5.34;nan;103330.94;4976585;28;19926;-84
2023/02/15 00:08:34;;;;;;;;;;;;;;;5.33;nan;103323.94;4976557;28;20017;-84
2023/02/15 00:11:05;;;;;;;;;;;;;;;5.31;nan;103323.25;4979048;28;20048;-84
2023/02/15 00:13:30;;;;;;;;;;;;;;;5.29;nan;103327.06;4974231;28;20078;-86
2023/02/15 00:16:00;;;;;;;;;;;;;;;5.26;nan;103324.72;4976758;28;19926;-83
2023/02/15 00:18:25;;;;;;;;;;;;;;;5.23;nan;103322.34;4978389;28;20299;-84
2023/02/15 00:20:51;;;;;;;;;;;;;;;5.20;nan;103323.47;4978245;28;20327;-84
2023/02/15 00:23:16;;;;;;;;;;;;;;;5.16;nan;103316.78;4979254;28;19925;-84
2023/02/15 00:25:41;;;;;;;;;;;;;;;5.14;nan;103319.59;4973868;28;20024;-84
2023/02/15 00:28:06;;;;;;;;;;;;;;;5.13;nan;103317.91;4974129;28;19932;-85
2023/02/15 00:30:32;;;;;;;;;;;;;;;5.13;nan;103317.09;4976131;28;19926;-85
2023/02/15 00:32:57;;;;;;;;;;;;;;;5.13;nan;103317.91;4958699;28;19926;-85
2023/02/15 00:35:22;;;;;;;;;;;;;;;5.11;nan;103314.56;4976598;28;19933;-85
2023/02/15 00:37:48;;;;;;;;;;;;;;;5.11;nan;103308.44;4972572;28;19922;-84
2023/02/15 00:40:14;;;;;;;;;;;;;;;5.10;nan;103304.94;4976722;28;19925;-84
2023/02/15 00:42:39;;;;;;;;;;;;;;;5.11;nan;103309.25;4977323;28;19980;-84
2023/02/15 00:45:05;;;;;;;;;;;;;;;5.10;nan;103307.59;4978472;28;20506;-85
2023/02/15 00:47:30;;;;;;;;;;;;;;;5.08;nan;103295.44;4974691;28;19925;-85
2023/02/15 00:49:55;;;;;;;;;;;;;;;5.05;nan;103293.94;4970978;28;19922;-84
2023/02/15 00:52:21;;;;;;;;;;;;;;;5.01;nan;103300.50;4979982;28;19925;-85
2023/02/15 00:54:46;;;;;;;;;;;;;;;4.99;nan;103304.28;4979788;28;19918;-85
2023/02/15 00:57:11;;;;;;;;;;;;;;;4.95;nan;103297.63;4976036;28;19918;-85
2023/02/15 00:59:37;;;;;;;;;;;;;;;4.93;nan;103296.94;4971578;28;19936;-84
2023/02/15 01:02:02;;;;;;;;;;;;;;;4.92;nan;103304.06;4973642;28;19928;-84
2023/02/15 01:04:27;;;;;;;;;;;;;;;4.90;nan;103305.19;4978238;28;19922;-84
2023/02/15 01:06:53;;;;;;;;;;;;;;;4.89;nan;103299.06;4973672;28;19932;-84
2023/02/15 01:09:18;;;;;;;;;;;;;;;4.88;nan;103291.22;4969436;28;19965;-86
2023/02/15 01:11:43;;;;;;;;;;;;;;;4.87;nan;103294.88;4975059;28;20360;-83
2023/02/15 01:14:09;;;;;;;;;;;;;;;4.83;nan;103295.16;4980969;28;20249;-84
2023/02/15 01:16:34;;;;;;;;;;;;;;;4.83;nan;103302.28;4978053;28;19918;-84
2023/02/15 01:19:02;;;;;;;;;;;;;;;4.84;nan;103295.97;4973716;28;19921;-85
2023/02/15 01:21:27;;;;;;;;;;;;;;;4.84;nan;103295.97;4971535;28;19964;-84
2023/02/15 01:23:53;;;;;;;;;;;;;;;4.83;nan;103292.50;4976902;28;20402;-84
2023/02/15 01:26:18;;;;;;;;;;;;;;;4.80;nan;103284.81;4971519;28;19922;-84
2023/02/15 01:28:44;;;;;;;;;;;;;;;4.76;nan;103283.44;4973662;28;19921;-86
2023/02/15 01:31:17;;;;;;;;;;;;;;;4.72;nan;103279.44;4974753;28;19918;-85
2023/02/15 01:33:42;;;;;;;;;;;;;;;4.69;nan;103274.41;4972031;28;20282;-84
2023/02/15 01:36:08;;;;;;;;;;;;;;;4.65;nan;103277.50;4971220;28;19929;-85
2023/02/15 01:38:34;;;;;;;;;;;;;;;4.64;nan;103273.16;4974981;28;19926;-84
2023/02/15 01:43:45;;;;;;;;;;;;;;;4.57;nan;103270.28;4973515;28;20053;-83
2023/02/15 01:46:12;;;;;;;;;;;;;;;4.57;nan;103269.44;4971043;28;19933;-83
2023/02/15 01:48:39;;;;;;;;;;;;;;;4.52;nan;103270.72;4970781;28;20390;-83
2023/02/15 01:51:04;;;;;;;;;;;;;;;4.50;nan;103271.84;4974619;28;19984;-84
2023/02/15 01:53:36;;;;;;;;;;;;;;;4.48;nan;103274.63;4972190;28;19961;-84
2023/02/15 01:56:05;;;;;;;;;;;;;;;4.45;nan;103272.25;4966178;28;20017;-83
2023/02/15 01:58:31;;;;;;;;;;;;;;;4.46;nan;103262.47;4971530;28;20013;-84
2023/02/15 02:00:59;;;;;;;;;;;;;;;4.46;nan;103262.47;4968584;28;20322;-84
2023/02/15 02:03:48;;;;;;;;;;;;;;;4.47;nan;103278.25;4973240;28;19960;-84
2023/02/15 02:06:13;;;;;;;;;;;;;;;4.47;nan;103262.34;4968943;28;20635;-84
2023/02/15 02:08:38;;;;;;;;;;;;;;;4.48;nan;103265.81;4968990;28;19918;-84
2023/02/15 02:11:09;;;;;;;;;;;;;;;4.48;nan;103266.66;4970029;28;19922;-85
2023/02/15 02:13:34;;;;;;;;;;;;;;;4.46;nan;103259.81;4976872;28;19917;-84
2023/02/15 02:16:03;;;;;;;;;;;;;;;4.46;nan;103265.97;4970007;28;19918;-84
2023/02/15 02:18:48;;;;;;;;;;;;;;;4.45;nan;103256.34;4965093;28;19922;-83
2023/02/15 02:21:16;;;;;;;;;;;;;;;4.43;nan;103258.31;4972503;28;19948;-84
2023/02/15 02:24:01;;;;;;;;;;;;;;;4.43;nan;103249.50;4972786;28;19918;-84
2023/02/15 02:26:54;;;;;;;;;;;;;;;4.41;nan;103243.50;4969506;28;19932;-84
2023/02/15 02:29:20;;;;;;;;;;;;;;;4.38;nan;103236.69;4969760;28;19926;-83
2023/02/15 02:31:45;;;;;;;;;;;;;;;4.36;nan;103233.34;4970532;28;19944;-84
2023/02/15 02:34:23;;;;;;;;;;;;;;;4.36;nan;103228.03;4972681;28;19977;-83
2023/02/15 02:36:57;;;;;;;;;;;;;;;4.36;nan;103224.53;4970716;28;20372;-85
2023/02/15 02:39:55;;;;;;;;;;;;;;;4.33;nan;103227.50;4968428;28;19963;-83
2023/02/15 02:42:26;;;;;;;;;;;;;;;4.30;nan;103222.44;4943565;28;19922;-84
2023/02/15 02:44:55;;;;;;;;;;;;;;;4.25;nan;103217.59;4971913;28;20387;-84
2023/02/15 02:47:20;;;;;;;;;;;;;;;4.22;nan;103216.06;4973649;28;19918;-84
2023/02/15 02:49:45;;;;;;;;;;;;;;;4.19;nan;103213.72;4981350;28;19924;-84
2023/02/15 02:52:29;;;;;;;;;;;;;;;4.18;nan;103208.56;4978270;28;20391;-85
2023/02/15 02:54:55;;;;;;;;;;;;;;;4.14;nan;103201.88;4973188;28;19937;-85
2023/02/15 02:57:23;;;;;;;;;;;;;;;4.13;nan;103202.81;4971454;28;20531;-84
2023/02/15 02:59:50;;;;;;;;;;;;;;;4.13;nan;103195.72;4977074;28;19918;-85
2023/02/15 03:02:25;;;;;;;;;;;;;;;4.11;nan;103195.00;4978859;28;20275;-84
2023/02/15 03:04:58;;;;;;;;;;;;;;;4.10;nan;103190.69;4978139;28;19928;-85
2023/02/15 03:07:25;;;;;;;;;;;;;;;4.09;nan;103188.19;4964007;28;20089;-84
2023/02/15 03:09:55;;;;;;;;;;;;;;;4.07;nan;103185.69;4978739;28;20350;-86
2023/02/15 03:12:22;;;;;;;;;;;;;;;4.06;nan;103184.00;4981503;28;19946;-83
2023/02/15 03:15:00;;;;;;;;;;;;;;;4.05;nan;103181.50;4979552;28;19918;-84
2023/02/15 03:17:28;;;;;;;;;;;;;;;4.03;nan;103183.47;4980683;28;19918;-84
2023/02/15 03:19:56;;;;;;;;;;;;;;;4.01;nan;103182.78;4982251;28;20359;-84
2023/02/15 03:22:26;;;;;;;;;;;;;;;3.94;nan;103178.03;4981905;28;19918;-83
2023/02/15 03:25:30;;;;;;;;;;;;;;;3.89;nan;103187.41;4980881;28;19922;-85
2023/02/15 03:27:59;;;;;;;;;;;;;;;3.86;nan;103180.59;4939813;28;20244;-85
2023/02/15 03:30:25;;;;;;;;;;;;;;;3.87;nan;103170.81;4941308;29;19934;-84
2023/02/15 03:32:51;;;;;;;;;;;;;;;3.85;nan;103170.97;4955175;28;19933;-86
2023/02/15 03:35:18;;;;;;;;;;;;;;;3.84;nan;103173.75;4972593;28;19922;-83
2023/02/15 03:38:12;;;;;;;;;;;;;;;3.83;nan;103172.94;4972515;28;19926;-84
2023/02/15 03:43:46;;;;;;;;;;;;;;;3.78;nan;103177.00;4969039;28;19985;-84
2023/02/15 03:46:15;;;;;;;;;;;;;;;3.76;nan;103171.81;4961074;28;19926;-85
2023/02/15 03:48:43;;;;;;;;;;;;;;;3.78;nan;103171.69;4970571;28;19921;-85
2023/02/15 03:53:57;;;;;;;;;;;;;;;3.74;nan;103172.94;4965670;28;20192;-84
2023/02/15 03:56:22;;;;;;;;;;;;;;;3.72;nan;103170.44;4969098;28;19957;-84
2023/02/15 04:01:59;;;;;;;;;;;;;;;3.71;nan;103167.94;4970607;28;20010;-84
2023/02/15 04:04:27;;;;;;;;;;;;;;;3.69;nan;103165.44;4977380;28;19933;-85
2023/02/15 04:06:53;;;;;;;;;;;;;;;3.69;nan;103161.94;4973333;28;19953;-85
2023/02/15 04:12:02;;;;;;;;;;;;;;;3.64;nan;103163.22;4978096;28;20030;-84
2023/02/15 04:17:18;;;;;;;;;;;;;;;3.62;nan;103151.09;4968570;28;20411;-83
2023/02/15 04:25:12;;;;;;;;;;;;;;;3.53;nan;103122.78;4977548;28;20431;-84
2023/02/15 04:27:37;;;;;;;;;;;;;;;3.51;nan;103125.56;4979552;28;20113;-84
2023/02/15 04:30:03;;;;;;;;;;;;;;;3.50;nan;103123.06;4973533;28;19922;-83
2023/02/15 04:32:29;;;;;;;;;;;;;;;3.49;nan;103121.41;4977058;28;19917;-84
2023/02/15 04:34:54;;;;;;;;;;;;;;;3.44;nan;103116.53;4980097;28;19921;-84
2023/02/15 04:37:19;;;;;;;;;;;;;;;3.42;nan;103115.84;4978193;28;20280;-83
2023/02/15 04:39:45;;;;;;;;;;;;;;;3.41;nan;103119.47;4979254;28;19929;-83
2023/02/15 04:42:10;;;;;;;;;;;;;;;3.41;nan;103113.31;4973040;28;19926;-84
2023/02/15 04:44:35;;;;;;;;;;;;;;;3.40;nan;103104.53;4971526;28;19958;-83
2023/02/15 04:47:01;;;;;;;;;;;;;;;3.40;nan;103107.16;4972570;28;20200;-84
2023/02/15 04:49:26;;;;;;;;;;;;;;;3.40;nan;103108.97;4975296;28;20009;-84
2023/02/15 04:51:52;;;;;;;;;;;;;;;3.39;nan;103102.00;4974090;28;20137;-86
2023/02/15 04:54:17;;;;;;;;;;;;;;;3.37;nan;103096.84;4977086;28;19976;-83
2023/02/15 04:56:42;;;;;;;;;;;;;;;3.36;nan;103091.72;4976693;28;19961;-83
2023/02/15 04:59:12;;;;;;;;;;;;;;;3.33;nan;103082.22;4972789;28;21273;-83
2023/02/15 05:01:37;;;;;;;;;;;;;;;3.29;nan;103084.34;4974728;28;20000;-84
2023/02/15 05:04:03;;;;;;;;;;;;;;;3.30;nan;103083.34;4974530;28;20496;-84
2023/02/15 05:06:28;;;;;;;;;;;;;;;3.29;nan;103080.84;4974325;28;19932;-83
2023/02/15 05:08:53;;;;;;;;;;;;;;;3.27;nan;103081.00;4974530;28;20202;-86
2023/02/15 05:11:19;;;;;;;;;;;;;;;3.26;nan;103074.03;4975258;28;19948;-83
2023/02/15 05:13:44;;;;;;;;;;;;;;;3.25;nan;103076.81;4970029;28;19919;-83
2023/02/15 05:16:10;;;;;;;;;;;;;;;3.24;nan;103077.81;4979489;28;20107;-84
2023/02/15 05:18:35;;;;;;;;;;;;;;;3.22;nan;103077.09;4975461;28;19923;-83
2023/02/15 05:21:00;;;;;;;;;;;;;;;3.21;nan;103080.72;4973250;28;20387;-84
2023/02/15 05:23:26;;;;;;;;;;;;;;;3.19;nan;103072.06;4980516;28;19922;-83
2023/02/15 05:28:36;;;;;;;;;;;;;;;3.13;nan;103073.50;4975492;28;20414;-83
2023/02/15 05:31:04;;;;;;;;;;;;;;;3.12;nan;103076.28;4978598;28;19991;-83
2023/02/15 05:33:29;;;;;;;;;;;;;;;3.13;nan;103068.19;4971541;28;19922;-86
2023/02/15 05:35:55;;;;;;;;;;;;;;;3.16;nan;103069.72;4958851;28;19929;-84
2023/02/15 05:38:20;;;;;;;;;;;;;;;3.14;nan;103066.38;4975761;28;19929;-84
2023/02/15 05:40:45;;;;;;;;;;;;;;;3.13;nan;103068.19;4979014;28;20063;-82
2023/02/15 05:43:11;;;;;;;;;;;;;;;3.14;nan;103071.69;4975654;28;19932;-84
2023/02/15 05:45:36;;;;;;;;;;;;;;;3.15;nan;103060.94;4979788;28;20069;-83
2023/02/15 05:48:02;;;;;;;;;;;;;;;3.14;nan;103053.13;4976427;28;20189;-85
2023/02/15 05:50:27;;;;;;;;;;;;;;;3.14;nan;103055.78;4973680;28;19925;-84
2023/02/15 05:52:53;;;;;;;;;;;;;;;3.14;nan;103047.84;4970699;28;19926;-84
2023/02/15 05:55:18;;;;;;;;;;;;;;;3.16;nan;103052.00;4974385;28;20307;-83
2023/02/15 05:57:43;;;;;;;;;;;;;;;3.14;nan;103051.31;4972887;28;19937;-86
2023/02/15 06:00:09;;;;;;;;;;;;;;;3.11;nan;103050.78;4979806;28;19929;-84
2023/02/15 06:02:38;;;;;;;;;;;;;;;3.07;nan;103052.88;4974371;28;19926;-83
2023/02/15 06:05:04;;;;;;;;;;;;;;;3.04;nan;103048.69;4972543;28;19968;-83
2023/02/15 06:07:30;;;;;;;;;;;;;;;3.05;nan;103041.56;4973145;28;19917;-84
2023/02/15 06:09:55;;;;;;;;;;;;;;;3.04;nan;103053.13;4975020;28;19929;-83
2023/02/15 06:12:20;;;;;;;;;;;;;;;3.06;nan;103048.56;4974632;28;19918;-84
2023/02/15 06:14:46;;;;;;;;;;;;;;;3.06;nan;103053.88;4977526;28;19957;-84
2023/02/15 06:17:11;;;;;;;;;;;;;;;3.06;nan;103050.38;4980199;28;19934;-83
2023/02/15 06:19:37;;;;;;;;;;;;;;;3.06;nan;103040.63;4977061;28;20471;-84
2023/02/15 06:22:02;;;;;;;;;;;;;;;3.03;nan;103040.88;4978467;28;19976;-83
2023/02/15 06:24:27;;;;;;;;;;;;;;;3.01;nan;103040.19;4983145;28;19918;-85
2023/02/15 06:26:53;;;;;;;;;;;;;;;2.97;nan;103042.28;4979293;28;19926;-85
2023/02/15 06:29:18;;;;;;;;;;;;;;;2.96;nan;103037.97;4978002;28;19922;-84
2023/02/15 06:32:06;;;;;;;;;;;;;;;2.94;nan;103045.22;4980311;28;19918;-84
2023/02/15 06:34:32;;;;;;;;;;;;;;;2.93;nan;103042.72;4982256;28;19957;-84
2023/02/15 06:36:57;;;;;;;;;;;;;;;2.91;nan;103039.38;4977111;28;19949;-85
2023/02/15 06:39:22;;;;;;;;;;;;;;;2.89;nan;103038.69;4970209;28;19960;-85
2023/02/15 06:41:48;;;;;;;;;;;;;;;2.89;nan;103042.19;4981244;28;20383;-86
2023/02/15 06:44:13;;;;;;;;;;;;;;;2.91;nan;103036.75;4977101;28;19929;-83
2023/02/15 06:46:39;;;;;;;;;;;;;;;2.92;nan;103035.75;4978950;28;19926;-83
2023/02/15 06:49:04;;;;;;;;;;;;;;;2.92;nan;103033.94;4972763;28;19929;-84
2023/02/15 06:51:29;;;;;;;;;;;;;;;2.94;nan;103031.16;4971610;28;20473;-83
2023/02/15 06:53:55;;;;;;;;;;;;;;;2.95;nan;103028.34;4967972;28;19928;-86
2023/02/15 06:56:20;;;;;;;;;;;;;;;2.95;nan;103028.34;4974869;28;20422;-84
2023/02/15 06:58:46;;;;;;;;;;;;;;;2.96;nan;103027.38;4978134;28;19922;-85
2023/02/15 07:01:11;;;;;;;;;;;;;;;2.97;nan;103025.56;4979668;28;20402;-83
2023/02/15 07:03:37;;;;;;;;;;;;;;;2.97;nan;103028.22;4979390;28;19960;-83
2023/02/15 07:06:05;;;;;;;;;;;;;;;2.99;nan;103023.59;4965652;28;20012;-83
2023/02/15 07:08:31;;;;;;;;;;;;;;;2.98;nan;103022.78;4971508;28;19921;-85
2023/02/15 07:12:41;;;;;;;;;;;;;;;2.99;nan;103028.91;4976281;28;20311;-86
2023/02/15 07:13:44;;;;;;;;;;;;;;;3.01;nan;103032.25;4975908;28;19965;-84
2023/02/15 07:16:10;;;;;;;;;;;;;;;3.03;nan;103025.00;4974723;28;19949;-83
2023/02/15 07:18:36;;;;;;;;;;;;;;;3.07;nan;103023.75;4974191;28;19922;-84
2023/02/15 07:21:01;;;;;;;;;;;;;;;3.13;nan;103015.22;4980031;28;20295;-84
2023/02/15 07:23:27;;;;;;;;;;;;;;;3.21;nan;103017.97;4983974;28;19917;-83
2023/02/15 07:25:59;;;;;;;;;;;;;;;3.31;nan;103007.34;4981586;28;19991;-85
2023/02/15 07:28:24;;;;;;;;;;;;;;;3.39;nan;103004.81;4972051;28;19922;-83
2023/02/15 07:30:50;;;;;;;;;;;;;;;3.51;nan;103003.66;4982394;28;19997;-86
2023/02/15 07:33:26;;;;;;;;;;;;;;;3.62;nan;102994.69;4976008;28;19985;-83
2023/02/15 07:35:57;;;;;;;;;;;;;;;3.71;nan;102999.06;4979021;28;19922;-85
2023/02/15 07:38:23;;;;;;;;;;;;;;;3.80;nan;103003.50;4976195;28;19922;-84
2023/02/15 07:40:49;;;;;;;;;;;;;;;3.88;nan;103003.59;4976190;28;19925;-86
2023/02/15 07:43:14;;;;;;;;;;;;;;;3.96;nan;102996.72;4977405;28;19921;-84
2023/02/15 07:45:39;;;;;;;;;;;;;;;4.05;nan;102993.16;4977732;28;19922;-86
2023/02/15 07:48:05;;;;;;;;;;;;;;;4.16;nan;102990.28;4970027;28;19925;-84
2023/02/15 07:50:31;;;;;;;;;;;;;;;4.29;nan;102992.56;4977454;28;19971;-84
2023/02/15 07:52:56;;;;;;;;;;;;;;;4.42;nan;102985.88;4971215;28;20013;-86
2023/02/15 07:55:22;;;;;;;;;;;;;;;4.54;nan;102989.16;4981088;28;19925;-84
2023/02/15 07:57:48;;;;;;;;;;;;;;;4.67;nan;102986.06;4980465;28;19925;-87
2023/02/15 08:00:16;;;;;;;;;;;;;;;4.77;nan;102973.53;4976945;28;19922;-85
2023/02/15 08:02:42;;;;;;;;;;;;;;;4.84;nan;102971.91;4976458;28;19964;-86
2023/02/15 08:05:07;;;;;;;;;;;;;;;4.91;nan;102962.34;4972237;28;19922;-85
2023/02/15 08:07:32;;;;;;;;;;;;;;;4.99;nan;102959.75;4981407;28;19925;-85
2023/02/15 08:09:59;;;;;;;;;;;;;;;5.08;nan;102961.47;4970554;28;19968;-85
2023/02/15 08:12:27;;;;;;;;;;;;;;;5.18;nan;102955.19;4980113;28;19944;-85
2023/02/15 08:14:53;;;;;;;;;;;;;;;5.28;nan;102958.56;4976728;28;19918;-86
2023/02/15 08:17:18;;;;;;;;;;;;;;;5.39;nan;102951.16;4978774;28;19921;-86
2023/02/15 08:19:43;;;;;;;;;;;;;;;5.51;nan;102958.81;4981016;28;20016;-85
2023/02/15 08:22:11;;;;;;;;;;;;;;;5.64;nan;102948.56;4977193;28;20500;-86
2023/02/15 08:24:37;;;;;;;;;;;;;;;5.73;nan;102942.28;4977528;28;19918;-86
2023/02/15 08:27:03;;;;;;;;;;;;;;;5.82;nan;102943.13;4978848;28;19921;-86
2023/02/15 08:29:32;;;;;;;;;;;;;;;5.88;nan;102934.50;4982269;28;20056;-86
2023/02/15 08:32:03;;;;;;;;;;;;;;;5.98;nan;102929.91;4978118;28;20005;-86
2023/02/15 08:34:33;;;;;;;;;;;;;;;6.10;nan;102931.22;4980640;28;19917;-86
2023/02/15 08:36:58;;;;;;;;;;;;;;;6.18;nan;102925.09;4977365;28;20002;-86
2023/02/15 08:39:24;;;;;;;;;;;;;;;6.23;nan;102923.59;4976475;28;20005;-87
2023/02/15 08:41:49;;;;;;;;;;;;;;;6.29;nan;102927.44;4972788;28;20368;-87
2023/02/15 08:44:16;;;;;;;;;;;;;;;6.33;nan;102926.09;4976856;28;19980;-86
2023/02/15 08:46:42;;;;;;;;;;;;;;;6.39;nan;102928.09;4978242;28;19977;-87
2023/02/15 08:49:13;;;;;;;;;;;;;;;6.52;nan;102933.75;4976307;28;20034;-86
2023/02/15 08:51:38;;;;;;;;;;;;;;;6.61;nan;102932.72;4981550;28;19921;-87
2023/02/15 08:54:10;;;;;;;;;;;;;;;6.74;nan;102926.88;4978698;28;19929;-87
2023/02/15 08:56:39;;;;;;;;;;;;;;;6.80;nan;102920.88;4975859;28;20008;-87
2023/02/15 08:59:05;;;;;;;;;;;;;;;6.89;nan;102916.34;4977797;28;19973;-87
2023/02/15 09:01:31;;;;;;;;;;;;;;;6.95;nan;102913.84;4975415;28;19968;-86
2023/02/15 09:03:58;;;;;;;;;;;;;;;7.01;nan;102908.84;4976100;28;20298;-87
2023/02/15 09:06:23;;;;;;;;;;;;;;;7.13;nan;102904.78;4981444;28;20390;-87
2023/02/15 09:08:49;;;;;;;;;;;;;;;7.21;nan;102902.09;4975769;28;19918;-87
2023/02/15 09:11:21;;;;;;;;;;;;;;;7.33;nan;102900.69;4979704;28;20013;-86
2023/02/15 09:13:48;;;;;;;;;;;;;;;7.39;nan;102900.00;4982630;28;20020;-88
2023/02/15 09:16:13;;;;;;;;;;;;;;;7.52;nan;102902.09;4961475;28;20535;-87
2023/02/15 09:18:39;;;;;;;;;;;;;;;7.62;nan;102901.88;4981745;28;19926;-86
2023/02/15 09:21:08;;;;;;;;;;;;;;;7.74;nan;102903.16;4977985;28;19925;-87
2023/02/15 09:23:34;;;;;;;;;;;;;;;7.81;nan;102899.59;4975174;28;20016;-86
2023/02/15 09:26:03;;;;;;;;;;;;;;;7.86;nan;102899.03;4976531;28;20566;-86
2023/02/15 09:28:28;;;;;;;;;;;;;;;7.93;nan;102901.84;4972528;28;19922;-87
2023/02/15 09:31:25;;;;;;;;;;;;;;;7.92;nan;102901.03;4982135;28;19944;-87
2023/02/15 09:37:37;;;;;;;;;;;;;;;8.00;nan;102903.63;4970713;28;19929;-88
2023/02/15 09:40:12;;;;;;;;;;;;;;;8.05;nan;102895.06;4993490;23;19937;-85
2023/02/15 09:42:53;;;;;;;;;;;;;;;8.05;nan;102898.56;4983747;28;20225;-85
2023/02/15 09:45:31;;;;;;;;;;;;;;;8.09;nan;102897.22;4978949;28;20016;-85
2023/02/15 09:48:07;;;;;;;;;;;;;;;8.13;nan;102908.38;4983016;28;19980;-85
2023/02/15 09:50:47;;;;;;;;;;;;;;;8.17;nan;102905.16;4977571;28;19922;-85
2023/02/15 09:53:22;;;;;;;;;;;;;;;8.26;nan;102907.75;4983473;28;19921;-85
2023/02/15 09:55:47;;;;;;;;;;;;;;;8.37;nan;102905.53;4980281;28;19925;-85
2023/02/15 09:58:27;;;;;;;;;;;;;;;8.47;nan;102913.28;4979130;28;20438;-85
2023/02/15 10:00:55;;;;;;;;;;;;;;;8.54;nan;102908.88;4982456;28;20015;-85
2023/02/15 10:03:20;;;;;;;;;;;;;;;8.57;nan;102899.66;4978796;28;19945;-85
2023/02/15 10:05:57;;;;;;;;;;;;;;;8.60;nan;102900.13;4982189;28;20367;-85
2023/02/15 10:08:41;;;;;;;;;;;;;;;8.63;nan;102901.63;4976985;28;19926;-86
2023/02/15 10:11:39;;;;;;;;;;;;;;;8.71;nan;102905.03;4982983;28;19925;-85
2023/02/15 10:14:15;;;;;;;;;;;;;;;8.81;nan;102898.59;4979699;28;20371;-84
2023/02/15 10:17:02;;;;;;;;;;;;;;;8.91;nan;102901.81;4981280;28;20009;-85
2023/02/15 10:19:46;;;;;;;;;;;;;;;8.97;nan;102901.06;4979014;28;19932;-85
2023/02/15 10:22:14;;;;;;;;;;;;;;;9.05;nan;102892.97;4981900;28;20009;-85
2023/02/15 10:24:39;;;;;;;;;;;;;;;9.11;nan;102894.88;4980954;28;19977;-85
2023/02/15 10:27:10;;;;;;;;;;;;;;;9.15;nan;102887.31;4981423;28;20008;-85
2023/02/15 10:29:37;;;;;;;;;;;;;;;9.16;nan;102884.47;4963464;28;19929;-84
2023/02/15 10:32:16;;;;;;;;;;;;;;;9.19;nan;102872.56;4976059;28;19973;-83
2023/02/15 10:34:47;;;;;;;;;;;;;;;9.18;nan;102860.22;4982008;28;19934;-85
2023/02/15 10:37:30;;;;;;;;;;;;;;;9.21;nan;102860.66;4980778;28;20016;-85
2023/02/15 10:40:10;;;;;;;;;;;;;;;9.27;nan;102854.56;4979100;28;19945;-84
2023/02/15 10:42:45;;;;;;;;;;;;;;;9.34;nan;102850.13;4959797;28;20485;-84
2023/02/15 10:45:23;;;;;;;;;;;;;;;9.41;nan;102849.38;4978655;28;20441;-85
2023/02/15 10:47:54;;;;;;;;;;;;;;;9.48;nan;102844.91;4982525;28;19930;-85
2023/02/15 10:50:37;;;;;;;;;;;;;;;9.47;nan;102851.28;4982496;28;19941;-84
2023/02/15 10:53:06;;;;;;;;;;;;;;;9.47;nan;102845.91;4981332;28;19921;-84
2023/02/15 10:55:57;;;;;;;;;;;;;;;9.49;nan;102849.22;4981085;28;19973;-84
2023/02/15 10:58:33;;;;;;;;;;;;;;;9.51;nan;102845.34;4952502;28;19926;-84
2023/02/15 11:01:03;;;;;;;;;;;;;;;9.52;nan;102840.84;4980822;28;19957;-84
2023/02/15 11:03:31;;;;;;;;;;;;;;;9.57;nan;102835.75;4980173;28;20271;-84
2023/02/15 11:05:57;;;;;;;;;;;;;;;9.59;nan;102828.34;4984288;28;19926;-84
2023/02/15 11:08:24;;;;;;;;;;;;;;;9.61;nan;102829.81;4980913;28;19922;-84
2023/02/15 11:10:53;;;;;;;;;;;;;;;9.58;nan;102830.19;4983851;28;20374;-83
2023/02/15 11:13:19;;;;;;;;;;;;;;;9.64;nan;102825.94;4983472;28;19922;-84
2023/02/15 11:15:55;;;;;;;;;;;;;;;9.66;nan;102816.69;4984169;28;20003;-83
2023/02/15 11:18:25;;;;;;;;;;;;;;;9.74;nan;102826.44;4979683;28;20435;-83
2023/02/15 11:20:59;;;;;;;;;;;;;;;9.83;nan;102821.78;4988065;28;20004;-84
2023/02/15 11:23:26;;;;;;;;;;;;;;;9.88;nan;102820.19;4978860;28;19921;-84
2023/02/15 11:25:57;;;;;;;;;;;;;;;9.98;nan;102819.84;4983041;28;19926;-84
2023/02/15 11:28:30;;;;;;;;;;;;;;;10.09;nan;102813.16;4981025;28;20399;-85
2023/02/15 11:30:56;;;;;;;;;;;;;;;10.16;nan;102824.72;4985649;28;20156;-84
2023/02/15 11:33:29;;;;;;;;;;;;;;;10.20;nan;102820.63;4984065;28;21000;-84
2023/02/15 11:36:16;;;;;;;;;;;;;;;10.16;nan;102820.19;4966545;28;19921;-84
2023/02/15 11:38:58;;;;;;;;;;;;;;;10.22;nan;102822.13;4979222;28;20398;-84
2023/02/15 11:41:36;;;;;;;;;;;;;;;10.25;nan;102820.94;4966151;28;19964;-84
2023/02/15 11:44:20;;;;;;;;;;;;;;;10.26;nan;102815.38;4984340;28;20307;-84
2023/02/15 11:46:46;;;;;;;;;;;;;;;10.31;nan;102817.47;4982617;28;19922;-84
2023/02/15 11:49:41;;;;;;;;;;;;;;;10.36;nan;102819.53;4981839;28;19977;-84
2023/02/15 11:58:37;;;;;;;;;;;;;;;10.51;nan;102809.53;4946774;28;19933;-84
2023/02/15 12:01:08;;;;;;;;;;;;;;;10.46;nan;102810.13;4944355;28;19930;-84
2023/02/15 12:03:45;;;;;;;;;;;;;;;10.48;nan;102800.06;4983337;28;19983;-84
2023/02/15 12:06:30;;;;;;;;;;;;;;;10.56;nan;102799.88;4985365;28;20012;-84
2023/02/15 12:09:02;;;;;;;;;;;;;;;10.71;nan;102797.06;4982921;28;20353;-84
2023/02/15 12:11:35;;;;;;;;;;;;;;;10.81;nan;102796.72;4984995;28;19922;-84
2023/02/15 12:14:05;;;;;;;;;;;;;;;10.81;nan;102792.19;4981796;28;19921;-84
2023/02/15 12:16:43;;;;;;;;;;;;;;;10.89;nan;102793.84;4980758;28;19973;-84
2023/02/15 12:19:20;;;;;;;;;;;;;;;10.88;nan;102790.34;4974011;28;19961;-84
2023/02/15 12:21:48;;;;;;;;;;;;;;;10.85;nan;102785.38;4980197;28;19925;-84
2023/02/15 12:24:20;;;;;;;;;;;;;;;10.82;nan;102787.66;4980291;28;20388;-84
2023/02/15 12:26:55;;;;;;;;;;;;;;;10.82;nan;102779.59;4978850;28;19921;-84
2023/02/15 12:29:24;;;;;;;;;;;;;;;10.87;nan;102777.97;4982489;28;20568;-84
2023/02/15 12:31:51;;;;;;;;;;;;;;;10.97;nan;102785.66;4984037;28;19930;-84
2023/02/15 12:40:44;;;;;;;;;;;;;;;11.05;nan;102769.34;4892009;29;19938;-84
2023/02/15 12:43:55;;;;;;;;;;;;;;;11.06;nan;102767.50;4902324;29;19922;-83
2023/02/15 12:46:40;;;;;;;;;;;;;;;11.14;nan;102760.13;4899758;29;19970;-84
2023/02/15 12:49:10;;;;;;;;;;;;;;;11.15;nan;102761.75;4975699;28;19926;-84
2023/02/15 12:51:45;;;;;;;;;;;;;;;11.23;nan;102760.75;4983767;28;19940;-84
2023/02/15 12:54:26;;;;;;;;;;;;;;;11.21;nan;102760.13;4983451;28;19921;-84
2023/02/15 12:56:52;;;;;;;;;;;;;;;11.17;nan;102748.97;4980789;28;20434;-85
2023/02/15 12:59:20;;;;;;;;;;;;;;;11.20;nan;102751.25;4984130;28;19929;-84
2023/02/15 13:01:46;;;;;;;;;;;;;;;11.20;nan;102751.25;4983614;28;19922;-84
2023/02/15 13:04:28;;;;;;;;;;;;;;;11.27;nan;102740.50;4984484;28;19952;-84
2023/02/15 13:06:56;;;;;;;;;;;;;;;11.44;nan;102736.41;4969931;28;21214;-84
2023/02/15 13:09:34;;;;;;;;;;;;;;;11.55;nan;102734.97;4981144;28;19921;-84
2023/02/15 13:12:10;;;;;;;;;;;;;;;11.66;nan;102733.50;4975621;28;19933;-84
2023/02/15 13:14:39;;;;;;;;;;;;;;;11.74;nan;102734.16;4979299;28;19944;-84
2023/02/15 13:17:05;;;;;;;;;;;;;;;11.80;nan;102725.28;4982111;28;19917;-84
2023/02/15 13:19:54;;;;;;;;;;;;;;;11.94;nan;102725.28;4978487;28;19932;-84
2023/02/15 13:22:24;;;;;;;;;;;;;;;12.15;nan;102724.19;4984115;28;20451;-84
2023/02/15 13:24:53;;;;;;;;;;;;;;;12.16;nan;102718.63;4987994;28;19918;-85
2023/02/15 13:27:20;;;;;;;;;;;;;;;12.18;nan;102716.53;4984808;28;20405;-84
2023/02/15 13:29:57;;;;;;;;;;;;;;;12.26;nan;102702.88;4984836;28;19928;-84
2023/02/15 13:32:28;;;;;;;;;;;;;;;12.36;nan;102705.94;4982073;28;19925;-84
2023/02/15 13:35:04;;;;;;;;;;;;;;;12.47;nan;102698.25;4987968;28;19976;-85
2023/02/15 13:37:48;;;;;;;;;;;;;;;12.49;nan;102702.38;4982437;28;20488;-84
2023/02/15 13:40:20;;;;;;;;;;;;;;;12.49;nan;102705.06;4977453;28;19930;-85
2023/02/15 13:42:50;;;;;;;;;;;;;;;12.55;nan;102698.00;4973695;28;20444;-84
2023/02/15 13:45:30;;;;;;;;;;;;;;;12.68;nan;102701.47;4982246;28;19944;-84
2023/02/15 13:47:56;;;;;;;;;;;;;;;12.82;nan;102691.47;4978215;28;19926;-85
2023/02/15 13:50:40;;;;;;;;;;;;;;;12.95;nan;102691.41;4983877;28;19933;-84
2023/02/15 13:53:08;;;;;;;;;;;;;;;13.07;nan;102690.69;4983075;28;19918;-84
2023/02/15 13:55:43;;;;;;;;;;;;;;;13.17;nan;102682.97;4980334;28;19917;-84
2023/02/15 13:58:34;;;;;;;;;;;;;;;13.20;nan;102677.19;4983612;28;19933;-84
2023/02/15 14:01:02;;;;;;;;;;;;;;;13.31;nan;102668.41;4982359;28;19918;-84